Nampa, Canada
Current Conditions -  °F | °C
As of 11:00 PM on Saturday 25 Oct 2014 (Local Time) from CYPE Reporting Station
Light Rain Light Rain  
Wind Chill: 27°   Ceiling: 1200
Heat Index: 36°   Visibility: 15mi
Dew Point: 32°   Wind: 14mph
Humidity: 87%   Direction: 60°ENE
Pressure: 29.66"   Gusts: 20mph
Location:  56.03°N, 117.12°W
Report Text: CYPE 260500Z 06012G17KT 15SM -RA OVC012 02/00 A2966 RMK SC8 SLP071
Loading
Personal Weather Stations






























Interactive Weather Map
Tropical Storm Tracking
New forecast layout! Learn more

10-Day Weather Forecast

Advertisements
Track Severe Weather on mobile